Terminal Aerodrome Forecast
Issued by NWS

Current Version | Previous Version | Graphics & Text | Print | Product List | Glossary On
Versions: 1 2 3 4 5 6 7 8 9 10 11 12 13 14 15 16 17 18 19 20 21 22 23
046
FTUS41 KILN 162342
TAFLUK
TAF
KLUK 162342Z 1700/1724 VRB03KT 3SM -SHRA BR SCT015 OVC060
      TEMPO 1700/1702 1SM -SHRA OVC015
     FM170200 15004KT 5SM BR VCSH OVC015
     FM170500 16005KT 2SM -SHRA BR VCTS OVC006CB
     FM171100 20010KT 5SM -SHRA BR OVC008
     FM171500 21012KT P6SM OVC015
     FM171800 25012G20KT P6SM OVC025=

USA.gov is the U.S. government's official web portal to all federal, state and local government web resources and services.